sensor_id;sensor_type;location;lat;lon;timestamp;pressure;altitude;pressure_sealevel;temperature;humidity
10060;BME280;5069;49.306;8.636;2023-08-24T00:02:33;100575.50;;;23.51;66.50
10060;BME280;5069;49.306;8.636;2023-08-24T00:05:37;100571.69;;;23.53;66.52
10060;BME280;5069;49.306;8.636;2023-08-24T00:08:39;100567.09;;;23.65;65.65
10060;BME280;5069;49.306;8.636;2023-08-24T00:11:41;100564.88;;;23.70;64.96
10060;BME280;5069;49.306;8.636;2023-08-24T00:14:42;100556.28;;;23.76;64.21
10060;BME280;5069;49.306;8.636;2023-08-24T00:17:44;100548.81;;;23.79;63.87
10060;BME280;5069;49.306;8.636;2023-08-24T00:20:45;100557.72;;;23.80;63.33
10060;BME280;5069;49.306;8.636;2023-08-24T00:23:47;100542.72;;;23.87;62.32
10060;BME280;5069;49.306;8.636;2023-08-24T00:29:50;100538.66;;;23.93;62.42
10060;BME280;5069;49.306;8.636;2023-08-24T00:32:51;100527.63;;;23.96;61.38
10060;BME280;5069;49.306;8.636;2023-08-24T00:35:53;100535.84;;;23.94;61.84
10060;BME280;5069;49.306;8.636;2023-08-24T00:38:55;100537.56;;;23.95;61.78
10060;BME280;5069;49.306;8.636;2023-08-24T00:41:57;100539.25;;;23.96;62.05
10060;BME280;5069;49.306;8.636;2023-08-24T00:44:58;100532.63;;;24.00;61.93
10060;BME280;5069;49.306;8.636;2023-08-24T00:48:00;100531.22;;;24.06;61.71
10060;BME280;5069;49.306;8.636;2023-08-24T00:51:01;100533.34;;;24.02;61.90
10060;BME280;5069;49.306;8.636;2023-08-24T00:54:03;100549.22;;;24.05;61.65
10060;BME280;5069;49.306;8.636;2023-08-24T00:57:06;100556.78;;;24.11;61.16
10060;BME280;5069;49.306;8.636;2023-08-24T01:00:08;100557.38;;;23.94;61.52
10060;BME280;5069;49.306;8.636;2023-08-24T01:03:11;100563.28;;;23.88;62.12
10060;BME280;5069;49.306;8.636;2023-08-24T01:06:13;100558.53;;;23.92;61.92
10060;BME280;5069;49.306;8.636;2023-08-24T01:09:14;100564.75;;;23.92;62.09
10060;BME280;5069;49.306;8.636;2023-08-24T01:12:33;100569.13;;;23.93;62.01
10060;BME280;5069;49.306;8.636;2023-08-24T01:15:48;100554.00;;;23.92;61.52
10060;BME280;5069;49.306;8.636;2023-08-24T01:18:57;100555.53;;;23.95;62.15
10060;BME280;5069;49.306;8.636;2023-08-24T01:22:02;100549.75;;;23.99;61.70
10060;BME280;5069;49.306;8.636;2023-08-24T01:25:13;100556.59;;;24.03;61.55
10060;BME280;5069;49.306;8.636;2023-08-24T01:28:18;100553.75;;;24.05;61.21
10060;BME280;5069;49.306;8.636;2023-08-24T01:31:20;100555.34;;;24.07;61.59
10060;BME280;5069;49.306;8.636;2023-08-24T01:34:22;100554.34;;;24.08;61.25
10060;BME280;5069;49.306;8.636;2023-08-24T01:37:26;100554.34;;;24.08;60.83
10060;BME280;5069;49.306;8.636;2023-08-24T01:40:36;100566.53;;;24.03;60.81
10060;BME280;5069;49.306;8.636;2023-08-24T01:43:43;100556.28;;;23.97;60.85
10060;BME280;5069;49.306;8.636;2023-08-24T01:46:48;100564.47;;;23.95;61.31
10060;BME280;5069;49.306;8.636;2023-08-24T01:49:51;100559.81;;;23.97;61.62
10060;BME280;5069;49.306;8.636;2023-08-24T01:52:52;100556.97;;;23.99;62.36
10060;BME280;5069;49.306;8.636;2023-08-24T01:55:54;100557.38;;;23.94;63.46
10060;BME280;5069;49.306;8.636;2023-08-24T01:58:55;100547.41;;;23.85;64.87
10060;BME280;5069;49.306;8.636;2023-08-24T02:01:58;100554.72;;;23.73;66.14
10060;BME280;5069;49.306;8.636;2023-08-24T02:04:59;100563.03;;;23.70;65.41
10060;BME280;5069;49.306;8.636;2023-08-24T02:08:01;100563.31;;;23.46;67.60
10060;BME280;5069;49.306;8.636;2023-08-24T02:11:04;100559.94;;;23.22;69.18
10060;BME280;5069;49.306;8.636;2023-08-24T02:14:06;100557.81;;;23.05;70.69
10060;BME280;5069;49.306;8.636;2023-08-24T02:17:11;100563.34;;;22.92;70.74
10060;BME280;5069;49.306;8.636;2023-08-24T02:20:13;100568.84;;;22.80;70.94
10060;BME280;5069;49.306;8.636;2023-08-24T02:23:15;100565.19;;;22.81;70.86
10060;BME280;5069;49.306;8.636;2023-08-24T02:26:16;100561.06;;;22.77;73.98
10060;BME280;5069;49.306;8.636;2023-08-24T02:29:18;100564.22;;;22.71;74.47
10060;BME280;5069;49.306;8.636;2023-08-24T02:32:19;100563.75;;;22.77;72.92
10060;BME280;5069;49.306;8.636;2023-08-24T02:35:21;100563.13;;;22.73;74.67
10060;BME280;5069;49.306;8.636;2023-08-24T02:38:23;100563.28;;;22.72;75.70
10060;BME280;5069;49.306;8.636;2023-08-24T02:41:26;100553.22;;;22.62;75.21
10060;BME280;5069;49.306;8.636;2023-08-24T02:44:27;100547.84;;;22.62;75.06
10060;BME280;5069;49.306;8.636;2023-08-24T02:47:29;100543.09;;;22.66;75.01
10060;BME280;5069;49.306;8.636;2023-08-24T02:50:30;100536.97;;;22.64;74.68
10060;BME280;5069;49.306;8.636;2023-08-24T02:53:32;100527.09;;;22.64;74.35
10060;BME280;5069;49.306;8.636;2023-08-24T02:56:34;100519.75;;;22.66;73.91
10060;BME280;5069;49.306;8.636;2023-08-24T02:59:36;100521.72;;;22.64;73.85
10060;BME280;5069;49.306;8.636;2023-08-24T03:02:37;100504.75;;;22.53;74.53
10060;BME280;5069;49.306;8.636;2023-08-24T03:05:39;100492.69;;;22.47;74.94
10060;BME280;5069;49.306;8.636;2023-08-24T03:08:41;100495.38;;;22.36;75.50
10060;BME280;5069;49.306;8.636;2023-08-24T03:11:42;100503.31;;;22.38;75.56
10060;BME280;5069;49.306;8.636;2023-08-24T03:14:45;100514.66;;;22.41;75.39
10060;BME280;5069;49.306;8.636;2023-08-24T03:17:47;100508.81;;;22.36;75.08
10060;BME280;5069;49.306;8.636;2023-08-24T03:20:51;100492.59;;;22.38;75.90
10060;BME280;5069;49.306;8.636;2023-08-24T03:23:52;100479.00;;;22.39;75.67
10060;BME280;5069;49.306;8.636;2023-08-24T03:26:54;100486.59;;;22.34;76.11
10060;BME280;5069;49.306;8.636;2023-08-24T03:29:55;100489.28;;;22.34;76.39
10060;BME280;5069;49.306;8.636;2023-08-24T03:32:57;100484.78;;;22.23;77.10
10060;BME280;5069;49.306;8.636;2023-08-24T03:36:01;100498.31;;;22.00;79.53
10060;BME280;5069;49.306;8.636;2023-08-24T03:39:04;100490.28;;;22.00;80.32
10060;BME280;5069;49.306;8.636;2023-08-24T03:42:06;100453.78;;;22.08;79.50
10060;BME280;5069;49.306;8.636;2023-08-24T03:45:08;100425.59;;;22.14;79.71
10060;BME280;5069;49.306;8.636;2023-08-24T03:48:12;100410.44;;;22.24;79.05
10060;BME280;5069;49.306;8.636;2023-08-24T03:51:13;100390.63;;;22.36;76.42
10060;BME280;5069;49.306;8.636;2023-08-24T03:54:15;100382.78;;;22.55;68.05
10060;BME280;5069;49.306;8.636;2023-08-24T03:57:17;100404.44;;;22.75;64.46
10060;BME280;5069;49.306;8.636;2023-08-24T04:00:18;100406.56;;;22.92;63.37
10060;BME280;5069;49.306;8.636;2023-08-24T04:03:20;100393.78;;;23.05;61.78
10060;BME280;5069;49.306;8.636;2023-08-24T04:06:21;100389.31;;;23.15;59.73
10060;BME280;5069;49.306;8.636;2023-08-24T04:09:23;100392.06;;;23.25;59.43
10060;BME280;5069;49.306;8.636;2023-08-24T04:12:25;100396.06;;;23.30;58.10
10060;BME280;5069;49.306;8.636;2023-08-24T04:15:27;100392.41;;;23.31;57.75
10060;BME280;5069;49.306;8.636;2023-08-24T04:18:29;100388.53;;;23.24;58.71
10060;BME280;5069;49.306;8.636;2023-08-24T04:21:30;100394.97;;;23.12;60.55
10060;BME280;5069;49.306;8.636;2023-08-24T04:24:32;100395.56;;;22.95;62.89
10060;BME280;5069;49.306;8.636;2023-08-24T04:27:34;100398.31;;;22.84;63.90
10060;BME280;5069;49.306;8.636;2023-08-24T04:30:35;100403.94;;;22.70;64.68
10060;BME280;5069;49.306;8.636;2023-08-24T04:33:37;100407.31;;;22.51;66.27
10060;BME280;5069;49.306;8.636;2023-08-24T04:36:38;100414.31;;;22.42;67.11
10060;BME280;5069;49.306;8.636;2023-08-24T04:39:40;100412.31;;;22.44;66.83
10060;BME280;5069;49.306;8.636;2023-08-24T04:42:41;100423.06;;;22.44;66.97
10060;BME280;5069;49.306;8.636;2023-08-24T04:45:45;100425.44;;;22.38;66.76
10060;BME280;5069;49.306;8.636;2023-08-24T04:48:47;100427.75;;;22.31;66.65
10060;BME280;5069;49.306;8.636;2023-08-24T04:51:49;100422.13;;;22.34;66.28
10060;BME280;5069;49.306;8.636;2023-08-24T04:54:51;100421.53;;;22.31;66.60
10060;BME280;5069;49.306;8.636;2023-08-24T04:57:52;100426.41;;;22.37;66.29
10060;BME280;5069;49.306;8.636;2023-08-24T05:00:54;100432.72;;;22.47;65.94
10060;BME280;5069;49.306;8.636;2023-08-24T05:03:57;100429.91;;;22.48;65.47
10060;BME280;5069;49.306;8.636;2023-08-24T05:06:58;100430.16;;;22.45;65.54
10060;BME280;5069;49.306;8.636;2023-08-24T05:10:00;100432.22;;;22.53;65.38
10060;BME280;5069;49.306;8.636;2023-08-24T05:13:01;100420.00;;;22.60;64.68
10060;BME280;5069;49.306;8.636;2023-08-24T05:16:03;100423.25;;;22.63;63.61
10060;BME280;5069;49.306;8.636;2023-08-24T05:19:05;100419.84;;;22.61;63.51
10060;BME280;5069;49.306;8.636;2023-08-24T05:22:06;100422.28;;;22.64;62.81
10060;BME280;5069;49.306;8.636;2023-08-24T05:25:08;100430.34;;;22.64;62.66
10060;BME280;5069;49.306;8.636;2023-08-24T05:28:10;100429.84;;;22.71;62.74
10060;BME280;5069;49.306;8.636;2023-08-24T05:31:11;100428.47;;;22.87;61.57
10060;BME280;5069;49.306;8.636;2023-08-24T05:34:13;100438.06;;;23.01;58.61
10060;BME280;5069;49.306;8.636;2023-08-24T05:37:14;100436.69;;;22.63;65.54
10060;BME280;5069;49.306;8.636;2023-08-24T05:40:16;100457.44;;;22.30;68.72
10060;BME280;5069;49.306;8.636;2023-08-24T05:43:18;100476.13;;;22.09;71.92
10060;BME280;5069;49.306;8.636;2023-08-24T05:46:19;100505.88;;;21.95;75.87
10060;BME280;5069;49.306;8.636;2023-08-24T05:49:21;100543.31;;;21.85;78.83
10060;BME280;5069;49.306;8.636;2023-08-24T05:52:22;100584.13;;;21.77;81.33
10060;BME280;5069;49.306;8.636;2023-08-24T05:55:24;100585.59;;;21.81;84.42
10060;BME280;5069;49.306;8.636;2023-08-24T05:58:25;100583.66;;;21.72;87.30
10060;BME280;5069;49.306;8.636;2023-08-24T06:01:27;100577.53;;;21.70;90.15
10060;BME280;5069;49.306;8.636;2023-08-24T06:04:28;100579.50;;;21.68;92.48
10060;BME280;5069;49.306;8.636;2023-08-24T06:07:30;100574.16;;;21.79;92.50
10060;BME280;5069;49.306;8.636;2023-08-24T06:10:31;100554.66;;;21.89;91.59
10060;BME280;5069;49.306;8.636;2023-08-24T06:13:33;100558.59;;;22.07;90.56
10060;BME280;5069;49.306;8.636;2023-08-24T06:16:34;100554.47;;;22.14;89.81
10060;BME280;5069;49.306;8.636;2023-08-24T06:19:36;100573.28;;;22.25;89.11
10060;BME280;5069;49.306;8.636;2023-08-24T06:22:37;100558.88;;;22.26;88.31
10060;BME280;5069;49.306;8.636;2023-08-24T06:25:39;100534.81;;;22.24;88.84
10060;BME280;5069;49.306;8.636;2023-08-24T06:28:41;100525.31;;;22.32;88.34
10060;BME280;5069;49.306;8.636;2023-08-24T06:31:42;100521.13;;;22.39;87.77
10060;BME280;5069;49.306;8.636;2023-08-24T06:34:44;100505.25;;;22.47;85.11
10060;BME280;5069;49.306;8.636;2023-08-24T06:37:47;100501.63;;;22.37;83.56
10060;BME280;5069;49.306;8.636;2023-08-24T06:40:49;100497.56;;;22.53;82.49
10060;BME280;5069;49.306;8.636;2023-08-24T06:43:51;100495.72;;;22.54;80.40
10060;BME280;5069;49.306;8.636;2023-08-24T06:46:55;100486.31;;;22.59;79.69
10060;BME280;5069;49.306;8.636;2023-08-24T06:49:56;100464.53;;;22.62;78.98
10060;BME280;5069;49.306;8.636;2023-08-24T06:52:58;100451.38;;;22.59;79.47
10060;BME280;5069;49.306;8.636;2023-08-24T06:55:59;100446.94;;;22.70;79.88
10060;BME280;5069;49.306;8.636;2023-08-24T06:59:01;100451.34;;;22.82;78.75
10060;BME280;5069;49.306;8.636;2023-08-24T07:02:02;100455.84;;;22.81;78.90
10060;BME280;5069;49.306;8.636;2023-08-24T07:05:06;100462.28;;;22.90;78.63
10060;BME280;5069;49.306;8.636;2023-08-24T07:08:09;100457.28;;;22.85;79.04
10060;BME280;5069;49.306;8.636;2023-08-24T07:11:11;100459.13;;;22.85;78.84
10060;BME280;5069;49.306;8.636;2023-08-24T07:14:15;100456.19;;;22.88;79.21
10060;BME280;5069;49.306;8.636;2023-08-24T07:17:17;100463.47;;;22.97;78.91
10060;BME280;5069;49.306;8.636;2023-08-24T07:20:19;100463.47;;;23.29;77.34
10060;BME280;5069;49.306;8.636;2023-08-24T07:23:21;100457.94;;;23.30;77.22
10060;BME280;5069;49.306;8.636;2023-08-24T07:26:22;100447.84;;;23.23;78.51
10060;BME280;5069;49.306;8.636;2023-08-24T07:29:24;100447.09;;;23.41;77.90
10060;BME280;5069;49.306;8.636;2023-08-24T07:32:26;100450.03;;;23.50;76.75
10060;BME280;5069;49.306;8.636;2023-08-24T07:35:28;100459.13;;;23.79;74.03
10060;BME280;5069;49.306;8.636;2023-08-24T07:38:30;100459.56;;;23.84;74.42
10060;BME280;5069;49.306;8.636;2023-08-24T07:41:32;100449.13;;;24.00;72.79
10060;BME280;5069;49.306;8.636;2023-08-24T07:44:33;100470.97;;;23.97;71.96
10060;BME280;5069;49.306;8.636;2023-08-24T07:47:35;100479.16;;;23.96;72.23
10060;BME280;5069;49.306;8.636;2023-08-24T07:50:36;100489.44;;;24.11;71.94
10060;BME280;5069;49.306;8.636;2023-08-24T07:53:38;100496.47;;;24.23;71.51
10060;BME280;5069;49.306;8.636;2023-08-24T07:56:39;100508.56;;;24.39;71.06
10060;BME280;5069;49.306;8.636;2023-08-24T07:59:41;100500.22;;;24.42;72.15
10060;BME280;5069;49.306;8.636;2023-08-24T08:02:42;100503.56;;;24.84;68.80
10060;BME280;5069;49.306;8.636;2023-08-24T08:06:24;100501.56;;;24.76;70.73
10060;BME280;5069;49.306;8.636;2023-08-24T08:09:42;100497.22;;;24.45;70.18
10060;BME280;5069;49.306;8.636;2023-08-24T08:12:46;100497.63;;;24.31;72.73
10060;BME280;5069;49.306;8.636;2023-08-24T08:15:48;100502.28;;;24.28;72.53
10060;BME280;5069;49.306;8.636;2023-08-24T08:18:51;100499.50;;;24.40;72.85
10060;BME280;5069;49.306;8.636;2023-08-24T08:21:53;100492.16;;;24.61;71.48
10060;BME280;5069;49.306;8.636;2023-08-24T08:24:54;100477.69;;;24.62;70.71
10060;BME280;5069;49.306;8.636;2023-08-24T08:27:57;100461.81;;;24.68;71.04
10060;BME280;5069;49.306;8.636;2023-08-24T08:30:59;100452.50;;;25.01;70.13
10060;BME280;5069;49.306;8.636;2023-08-24T08:34:01;100441.84;;;25.29;66.50
10060;BME280;5069;49.306;8.636;2023-08-24T08:37:03;100443.06;;;25.63;66.39
10060;BME280;5069;49.306;8.636;2023-08-24T08:40:05;100439.00;;;25.86;64.00
10060;BME280;5069;49.306;8.636;2023-08-24T08:43:07;100426.72;;;26.02;63.66
10060;BME280;5069;49.306;8.636;2023-08-24T08:46:08;100415.00;;;26.38;62.60
10060;BME280;5069;49.306;8.636;2023-08-24T08:49:12;100398.81;;;26.56;61.92
10060;BME280;5069;49.306;8.636;2023-08-24T08:52:17;100393.28;;;26.93;61.07
10060;BME280;5069;49.306;8.636;2023-08-24T08:55:19;100378.28;;;27.24;58.96
10060;BME280;5069;49.306;8.636;2023-08-24T08:58:21;100375.88;;;27.39;58.47
10060;BME280;5069;49.306;8.636;2023-08-24T09:01:24;100368.34;;;27.50;54.46
10060;BME280;5069;49.306;8.636;2023-08-24T09:04:27;100363.53;;;27.70;52.81
10060;BME280;5069;49.306;8.636;2023-08-24T09:07:29;100356.44;;;27.77;52.36
10060;BME280;5069;49.306;8.636;2023-08-24T09:10:30;100354.91;;;27.75;52.42
10060;BME280;5069;49.306;8.636;2023-08-24T09:13:32;100360.22;;;27.84;52.97
10060;BME280;5069;49.306;8.636;2023-08-24T09:16:34;100359.72;;;27.97;53.40
10060;BME280;5069;49.306;8.636;2023-08-24T09:19:35;100347.06;;;28.06;53.23
10060;BME280;5069;49.306;8.636;2023-08-24T09:22:39;100357.13;;;28.21;52.87
10060;BME280;5069;49.306;8.636;2023-08-24T09:25:46;100344.97;;;28.33;51.83
10060;BME280;5069;49.306;8.636;2023-08-24T09:28:49;100347.03;;;28.64;51.65
10060;BME280;5069;49.306;8.636;2023-08-24T09:31:51;100343.69;;;28.78;50.49
10060;BME280;5069;49.306;8.636;2023-08-24T09:34:53;100327.72;;;28.83;50.41
10060;BME280;5069;49.306;8.636;2023-08-24T09:37:55;100315.19;;;28.90;49.32
10060;BME280;5069;49.306;8.636;2023-08-24T09:40:57;100306.03;;;28.91;49.98
10060;BME280;5069;49.306;8.636;2023-08-24T09:44:03;100307.72;;;28.92;50.79
10060;BME280;5069;49.306;8.636;2023-08-24T09:47:11;100313.97;;;29.01;50.03
10060;BME280;5069;49.306;8.636;2023-08-24T09:50:13;100308.72;;;28.99;49.67
10060;BME280;5069;49.306;8.636;2023-08-24T09:53:19;100309.56;;;29.16;49.45
10060;BME280;5069;49.306;8.636;2023-08-24T09:56:21;100280.16;;;29.28;48.58
10060;BME280;5069;49.306;8.636;2023-08-24T09:59:27;100273.91;;;29.27;48.12
10060;BME280;5069;49.306;8.636;2023-08-24T10:02:32;100270.31;;;29.35;47.53
10060;BME280;5069;49.306;8.636;2023-08-24T10:05:38;100268.38;;;29.51;48.15
10060;BME280;5069;49.306;8.636;2023-08-24T10:08:58;100260.38;;;29.58;48.60
10060;BME280;5069;49.306;8.636;2023-08-24T10:12:04;100268.13;;;29.69;48.24
10060;BME280;5069;49.306;8.636;2023-08-24T10:15:06;100260.66;;;29.71;48.18
10060;BME280;5069;49.306;8.636;2023-08-24T10:18:09;100256.94;;;29.64;48.10
10060;BME280;5069;49.306;8.636;2023-08-24T10:21:11;100247.47;;;29.60;48.47
10060;BME280;5069;49.306;8.636;2023-08-24T10:24:14;100228.75;;;29.65;48.72
10060;BME280;5069;49.306;8.636;2023-08-24T10:27:16;100226.97;;;29.80;48.45
10060;BME280;5069;49.306;8.636;2023-08-24T10:30:20;100219.97;;;29.94;48.06
10060;BME280;5069;49.306;8.636;2023-08-24T10:33:22;100210.50;;;30.13;48.15
10060;BME280;5069;49.306;8.636;2023-08-24T10:36:24;100204.91;;;30.29;47.42
10060;BME280;5069;49.306;8.636;2023-08-24T10:39:27;100205.13;;;30.42;48.21
10060;BME280;5069;49.306;8.636;2023-08-24T10:42:43;100208.09;;;30.55;47.68
10060;BME280;5069;49.306;8.636;2023-08-24T10:45:59;100196.00;;;30.72;46.47
10060;BME280;5069;49.306;8.636;2023-08-24T10:49:03;100185.97;;;30.73;46.54
10060;BME280;5069;49.306;8.636;2023-08-24T10:52:19;100190.50;;;30.43;47.26
10060;BME280;5069;49.306;8.636;2023-08-24T10:55:26;100179.41;;;30.53;47.54
10060;BME280;5069;49.306;8.636;2023-08-24T10:58:33;100176.00;;;30.65;46.23
10060;BME280;5069;49.306;8.636;2023-08-24T11:01:38;100163.06;;;30.82;45.77
10060;BME280;5069;49.306;8.636;2023-08-24T11:04:40;100164.00;;;30.89;45.56
10060;BME280;5069;49.306;8.636;2023-08-24T11:07:52;100152.47;;;31.02;46.26
10060;BME280;5069;49.306;8.636;2023-08-24T11:10:55;100150.22;;;31.20;45.33
10060;BME280;5069;49.306;8.636;2023-08-24T11:14:13;100153.44;;;31.45;44.60
10060;BME280;5069;49.306;8.636;2023-08-24T11:17:19;100151.25;;;31.70;43.90
10060;BME280;5069;49.306;8.636;2023-08-24T11:20:21;100161.53;;;31.89;43.85
10060;BME280;5069;49.306;8.636;2023-08-24T11:23:24;100155.84;;;32.12;42.42
10060;BME280;5069;49.306;8.636;2023-08-24T11:26:26;100152.94;;;32.13;42.25
10060;BME280;5069;49.306;8.636;2023-08-24T11:29:28;100143.53;;;32.16;42.51
10060;BME280;5069;49.306;8.636;2023-08-24T11:32:30;100140.72;;;32.09;42.79
10060;BME280;5069;49.306;8.636;2023-08-24T11:35:35;100130.94;;;31.93;42.81
10060;BME280;5069;49.306;8.636;2023-08-24T11:38:39;100129.06;;;32.15;42.99
10060;BME280;5069;49.306;8.636;2023-08-24T11:41:41;100118.63;;;32.25;41.74
10060;BME280;5069;49.306;8.636;2023-08-24T11:44:46;100117.84;;;32.31;41.50
10060;BME280;5069;49.306;8.636;2023-08-24T11:47:49;100115.72;;;32.27;41.98
10060;BME280;5069;49.306;8.636;2023-08-24T11:50:51;100108.00;;;32.09;42.53
10060;BME280;5069;49.306;8.636;2023-08-24T11:53:55;100103.47;;;32.16;43.31
10060;BME280;5069;49.306;8.636;2023-08-24T11:56:56;100103.47;;;32.16;42.01
10060;BME280;5069;49.306;8.636;2023-08-24T11:59:58;100087.59;;;32.26;42.14
10060;BME280;5069;49.306;8.636;2023-08-24T12:02:59;100086.31;;;32.22;42.16
10060;BME280;5069;49.306;8.636;2023-08-24T12:06:02;100084.88;;;32.26;42.49
10060;BME280;5069;49.306;8.636;2023-08-24T12:09:05;100083.00;;;32.27;43.28
10060;BME280;5069;49.306;8.636;2023-08-24T12:12:15;100070.28;;;32.40;43.11
10060;BME280;5069;49.306;8.636;2023-08-24T12:15:20;100064.22;;;32.45;42.54
10060;BME280;5069;49.306;8.636;2023-08-24T12:18:22;100065.94;;;32.53;42.86
10060;BME280;5069;49.306;8.636;2023-08-24T12:21:24;100067.47;;;32.62;42.79
10060;BME280;5069;49.306;8.636;2023-08-24T12:24:25;100066.50;;;32.76;42.37
10060;BME280;5069;49.306;8.636;2023-08-24T12:27:27;100056.06;;;32.86;42.47
10060;BME280;5069;49.306;8.636;2023-08-24T12:30:29;100047.41;;;32.76;42.35
10060;BME280;5069;49.306;8.636;2023-08-24T12:33:31;100045.13;;;32.79;43.15
10060;BME280;5069;49.306;8.636;2023-08-24T12:36:33;100033.38;;;32.79;43.17
10060;BME280;5069;49.306;8.636;2023-08-24T12:39:38;100029.97;;;32.77;43.33
10060;BME280;5069;49.306;8.636;2023-08-24T12:42:40;100021.19;;;32.88;42.66
10060;BME280;5069;49.306;8.636;2023-08-24T12:45:42;100022.03;;;32.82;44.01
10060;BME280;5069;49.306;8.636;2023-08-24T12:48:44;100009.00;;;32.77;44.42
10060;BME280;5069;49.306;8.636;2023-08-24T12:51:45;100016.97;;;32.79;44.63
10060;BME280;5069;49.306;8.636;2023-08-24T12:54:47;100016.19;;;32.98;44.38
10060;BME280;5069;49.306;8.636;2023-08-24T12:57:48;100010.13;;;32.96;42.37
10060;BME280;5069;49.306;8.636;2023-08-24T13:00:50;100014.50;;;32.91;43.37
10060;BME280;5069;49.306;8.636;2023-08-24T13:03:52;100006.69;;;32.81;43.14
10060;BME280;5069;49.306;8.636;2023-08-24T13:06:54;100012.41;;;32.86;43.10
10060;BME280;5069;49.306;8.636;2023-08-24T13:09:55;100005.69;;;32.95;43.42
10060;BME280;5069;49.306;8.636;2023-08-24T13:12:57;100006.97;;;32.99;44.12
10060;BME280;5069;49.306;8.636;2023-08-24T13:15:59;99976.97;;;33.12;44.09
10060;BME280;5069;49.306;8.636;2023-08-24T13:19:00;99969.25;;;33.42;44.24
10060;BME280;5069;49.306;8.636;2023-08-24T13:22:02;99969.44;;;33.67;43.17
10060;BME280;5069;49.306;8.636;2023-08-24T13:25:04;99964.66;;;33.69;42.97
10060;BME280;5069;49.306;8.636;2023-08-24T13:28:06;99969.69;;;33.72;42.18
10060;BME280;5069;49.306;8.636;2023-08-24T13:31:08;99975.59;;;33.69;42.46
10060;BME280;5069;49.306;8.636;2023-08-24T13:34:09;99967.78;;;33.79;42.99
10060;BME280;5069;49.306;8.636;2023-08-24T13:37:11;99961.25;;;33.93;41.78
10060;BME280;5069;49.306;8.636;2023-08-24T13:40:12;99968.81;;;33.91;41.66
10060;BME280;5069;49.306;8.636;2023-08-24T13:43:14;99977.88;;;33.79;42.54
10060;BME280;5069;49.306;8.636;2023-08-24T13:46:15;99980.63;;;33.72;41.61
10060;BME280;5069;49.306;8.636;2023-08-24T13:49:19;99990.72;;;33.78;41.74
10060;BME280;5069;49.306;8.636;2023-08-24T13:52:39;100004.13;;;33.40;42.39
10060;BME280;5069;49.306;8.636;2023-08-24T13:55:41;99999.28;;;33.29;43.48
10060;BME280;5069;49.306;8.636;2023-08-24T13:58:42;99995.28;;;33.25;43.59
10060;BME280;5069;49.306;8.636;2023-08-24T14:01:44;99989.75;;;32.92;44.07
10060;BME280;5069;49.306;8.636;2023-08-24T14:04:45;99993.03;;;32.74;44.83
10060;BME280;5069;49.306;8.636;2023-08-24T14:07:47;100008.13;;;32.70;44.87
10060;BME280;5069;49.306;8.636;2023-08-24T14:10:49;100009.28;;;32.55;45.04
10060;BME280;5069;49.306;8.636;2023-08-24T14:13:50;100039.03;;;32.43;45.38
10060;BME280;5069;49.306;8.636;2023-08-24T14:16:55;100066.22;;;32.30;45.15
10060;BME280;5069;49.306;8.636;2023-08-24T14:19:57;100091.78;;;32.22;45.92
10060;BME280;5069;49.306;8.636;2023-08-24T14:22:59;100120.22;;;32.13;46.29
10060;BME280;5069;49.306;8.636;2023-08-24T14:26:00;100152.09;;;32.13;46.50
10060;BME280;5069;49.306;8.636;2023-08-24T14:29:02;100177.88;;;31.89;47.72
10060;BME280;5069;49.306;8.636;2023-08-24T14:32:03;100195.69;;;31.70;48.79
10060;BME280;5069;49.306;8.636;2023-08-24T14:35:05;100206.31;;;31.50;49.94
10060;BME280;5069;49.306;8.636;2023-08-24T14:38:07;100227.38;;;31.27;50.87
10060;BME280;5069;49.306;8.636;2023-08-24T14:41:11;100290.88;;;31.13;53.03
10060;BME280;5069;49.306;8.636;2023-08-24T14:44:12;100354.56;;;30.89;58.63
10060;BME280;5069;49.306;8.636;2023-08-24T14:47:14;100272.84;;;29.75;67.29
10060;BME280;5069;49.306;8.636;2023-08-24T14:50:15;100171.06;;;28.69;75.75
10060;BME280;5069;49.306;8.636;2023-08-24T14:53:17;100077.63;;;28.16;80.65
10060;BME280;5069;49.306;8.636;2023-08-24T14:56:21;100037.84;;;27.60;86.55
10060;BME280;5069;49.306;8.636;2023-08-24T14:59:22;99964.22;;;27.32;87.65
10060;BME280;5069;49.306;8.636;2023-08-24T15:02:24;99921.63;;;27.10;87.50
10060;BME280;5069;49.306;8.636;2023-08-24T15:05:25;99858.66;;;26.84;89.18
10060;BME280;5069;49.306;8.636;2023-08-24T15:08:30;99796.28;;;26.61;89.85
10060;BME280;5069;49.306;8.636;2023-08-24T15:11:33;99750.19;;;26.46;92.26
10060;BME280;5069;49.306;8.636;2023-08-24T15:14:34;99749.66;;;26.51;92.12
10060;BME280;5069;49.306;8.636;2023-08-24T15:17:36;99753.88;;;26.61;91.21
10060;BME280;5069;49.306;8.636;2023-08-24T15:20:37;99769.59;;;26.74;88.89
10060;BME280;5069;49.306;8.636;2023-08-24T15:23:39;99790.94;;;26.93;82.64
10060;BME280;5069;49.306;8.636;2023-08-24T15:26:40;99800.22;;;26.91;89.92
10060;BME280;5069;49.306;8.636;2023-08-24T15:29:42;99808.28;;;26.66;96.01
10060;BME280;5069;49.306;8.636;2023-08-24T15:32:43;99826.69;;;26.55;98.05
10060;BME280;5069;49.306;8.636;2023-08-24T15:35:45;99865.41;;;26.63;100.00
10060;BME280;5069;49.306;8.636;2023-08-24T15:38:47;99880.66;;;26.89;97.02
10060;BME280;5069;49.306;8.636;2023-08-24T15:41:48;99909.06;;;27.17;97.41
10060;BME280;5069;49.306;8.636;2023-08-24T15:44:50;99921.09;;;27.23;96.06
10060;BME280;5069;49.306;8.636;2023-08-24T15:47:52;99923.31;;;27.11;98.13
10060;BME280;5069;49.306;8.636;2023-08-24T15:50:57;99935.13;;;27.18;94.98
10060;BME280;5069;49.306;8.636;2023-08-24T16:03:59;99935.13;;;27.34;87.48
10060;BME280;5069;49.306;8.636;2023-08-24T16:07:01;99925.31;;;27.41;88.87
10060;BME280;5069;49.306;8.636;2023-08-24T16:10:02;99934.13;;;27.43;87.75
10060;BME280;5069;49.306;8.636;2023-08-24T16:13:06;99940.88;;;27.47;88.15
10060;BME280;5069;49.306;8.636;2023-08-24T16:16:07;99938.53;;;27.52;86.26
10060;BME280;5069;49.306;8.636;2023-08-24T16:19:09;99934.13;;;27.60;83.70
10060;BME280;5069;49.306;8.636;2023-08-24T16:22:12;99937.50;;;27.53;87.79
10060;BME280;5069;49.306;8.636;2023-08-24T16:25:14;99928.72;;;27.51;85.69